createdAt,value
2019-01-28T00:00:33.824Z,4.30
2019-01-28T00:03:02.440Z,4.30
2019-01-28T00:05:30.795Z,4.30
2019-01-28T00:07:59.176Z,4.20
2019-01-28T00:10:27.539Z,4.20
2019-01-28T00:12:55.925Z,4.20
2019-01-28T00:15:24.365Z,4.20
2019-01-28T00:17:52.786Z,4.10
2019-01-28T00:20:21.128Z,4.10
2019-01-28T00:22:49.447Z,4.10
2019-01-28T00:25:17.745Z,4.00
2019-01-28T00:27:46.138Z,4.00
2019-01-28T00:30:14.426Z,3.90
2019-01-28T00:32:42.821Z,3.80
2019-01-28T00:35:11.185Z,3.70
2019-01-28T00:37:39.565Z,3.60
2019-01-28T00:40:10.373Z,3.40
2019-01-28T00:42:38.759Z,3.30
2019-01-28T00:45:32.447Z,3.40
2019-01-28T00:48:00.828Z,3.40
2019-01-28T00:50:29.206Z,3.30
2019-01-28T00:52:57.583Z,3.20
2019-01-28T00:55:25.961Z,3.20
2019-01-28T00:57:54.329Z,3.20
2019-01-28T01:00:24.400Z,3.20
2019-01-28T01:02:52.735Z,3.10
2019-01-28T01:05:21.122Z,3.10
2019-01-28T01:07:49.505Z,3.10
2019-01-28T01:10:17.909Z,3.10
2019-01-28T01:12:46.279Z,3.10
2019-01-28T01:15:16.303Z,3.00
2019-01-28T01:17:44.718Z,3.10
2019-01-28T01:20:15.702Z,3.10
2019-01-28T01:22:44.044Z,3.00
2019-01-28T01:25:12.577Z,3.00
2019-01-28T01:27:42.541Z,2.90
2019-01-28T01:30:13.829Z,2.90
2019-01-28T01:32:42.282Z,2.80
2019-01-28T01:35:10.571Z,2.80
2019-01-28T01:37:39.019Z,2.70
2019-01-28T01:40:10.473Z,2.80
2019-01-28T01:42:38.850Z,2.80
2019-01-28T01:45:10.327Z,2.70
2019-01-28T01:47:38.693Z,2.70
2019-01-28T01:50:08.953Z,2.70
2019-01-28T01:52:37.314Z,2.70
2019-01-28T01:55:08.304Z,2.70
2019-01-28T01:58:23.003Z,2.60
2019-01-28T02:01:13.452Z,2.50
2019-01-28T02:03:41.784Z,2.40
2019-01-28T02:06:10.129Z,2.40
2019-01-28T02:08:38.511Z,2.30
2019-01-28T02:11:06.881Z,2.40
2019-01-28T02:13:35.398Z,2.30
2019-01-28T02:16:03.749Z,2.30
2019-01-28T02:18:32.120Z,2.40
2019-01-28T02:21:00.551Z,2.40
2019-01-28T02:23:28.997Z,2.40
2019-01-28T02:25:57.414Z,2.40
2019-01-28T02:28:25.871Z,2.40
2019-01-28T02:30:54.174Z,2.40
2019-01-28T02:33:22.614Z,2.40
2019-01-28T02:35:50.982Z,2.40
2019-01-28T02:38:19.376Z,2.40
2019-01-28T02:40:47.711Z,2.40
2019-01-28T02:43:16.085Z,2.30
2019-01-28T02:45:44.544Z,2.30
2019-01-28T02:48:13.183Z,2.40
2019-01-28T02:50:41.550Z,2.40
2019-01-28T02:53:09.825Z,2.50
2019-01-28T02:55:38.239Z,2.50
2019-01-28T02:58:06.713Z,2.50
2019-01-28T03:00:35.051Z,2.50
2019-01-28T03:03:07.887Z,2.50
2019-01-28T03:05:36.181Z,2.50
2019-01-28T03:08:04.470Z,2.60
2019-01-28T03:10:32.919Z,2.60
2019-01-28T03:13:01.352Z,2.60
2019-01-28T03:15:29.773Z,2.60
2019-01-28T03:17:58.058Z,2.50
2019-01-28T03:20:26.464Z,2.40
2019-01-28T03:22:54.806Z,2.40
2019-01-28T03:25:23.274Z,2.40
2019-01-28T03:27:51.616Z,2.40
2019-01-28T03:30:20.786Z,2.50
2019-01-28T03:32:49.254Z,2.50
2019-01-28T03:35:17.985Z,2.40
2019-01-28T03:37:46.377Z,2.50
2019-01-28T03:40:19.477Z,2.40
2019-01-28T03:42:48.173Z,2.40
2019-01-28T03:45:18.294Z,2.40
2019-01-28T03:47:46.670Z,2.40
2019-01-28T03:50:16.887Z,2.40
2019-01-28T03:52:45.499Z,2.40
2019-01-28T03:55:13.921Z,2.40
2019-01-28T03:57:42.297Z,2.40
2019-01-28T04:00:19.708Z,2.40
2019-01-28T04:02:48.100Z,2.40
2019-01-28T04:05:16.438Z,2.50
2019-01-28T04:07:44.863Z,2.50
2019-01-28T04:10:18.246Z,2.50
2019-01-28T04:12:46.607Z,2.50
2019-01-28T04:15:19.745Z,2.60
2019-01-28T04:17:48.095Z,2.60
2019-01-28T04:20:16.835Z,2.60
2019-01-28T04:22:45.203Z,2.60
2019-01-28T04:25:13.643Z,2.60
2019-01-28T04:27:41.982Z,2.70
2019-01-28T04:30:19.029Z,2.70
2019-01-28T04:32:47.377Z,2.70
2019-01-28T04:35:15.759Z,2.70
2019-01-28T04:37:44.261Z,2.70
2019-01-28T04:40:14.674Z,2.70
2019-01-28T04:42:43.045Z,2.70
2019-01-28T04:45:16.790Z,2.70
2019-01-28T04:47:45.151Z,2.70
2019-01-28T04:50:20.811Z,2.70
2019-01-28T04:52:49.358Z,2.70
2019-01-28T04:55:17.734Z,2.70
2019-01-28T04:57:46.137Z,2.70
2019-01-28T05:00:25.349Z,2.70
2019-01-28T05:02:53.770Z,2.70
2019-01-28T05:05:22.194Z,2.70
2019-01-28T05:07:50.581Z,2.70
2019-01-28T05:10:20.300Z,2.70
2019-01-28T05:12:48.655Z,2.70
2019-01-28T05:15:19.105Z,2.80
2019-01-28T05:17:47.550Z,2.80
2019-01-28T05:20:18.609Z,2.80
2019-01-28T05:22:46.923Z,2.80
2019-01-28T05:25:16.704Z,2.80
2019-01-28T05:27:45.078Z,2.70
2019-01-28T05:30:21.741Z,2.70
2019-01-28T05:32:50.111Z,2.70
2019-01-28T05:35:19.452Z,2.80
2019-01-28T05:37:47.819Z,2.80
2019-01-28T05:40:18.861Z,2.70
2019-01-28T05:42:47.140Z,2.70
2019-01-28T05:45:16.844Z,2.80
2019-01-28T05:47:45.202Z,2.80
2019-01-28T05:50:14.555Z,2.80
2019-01-28T05:52:42.926Z,2.80
2019-01-28T05:55:16.200Z,2.80
2019-01-28T05:57:44.589Z,2.80
2019-01-28T06:00:18.767Z,2.80
2019-01-28T06:02:47.102Z,2.70
2019-01-28T06:05:15.618Z,2.80
2019-01-28T06:07:43.969Z,2.80
2019-01-28T06:10:14.970Z,2.80
2019-01-28T06:12:43.324Z,2.80
2019-01-28T06:15:17.178Z,2.80
2019-01-28T06:17:45.460Z,2.80
2019-01-28T06:20:16.606Z,2.80
2019-01-28T06:22:44.959Z,2.80
2019-01-28T06:25:13.330Z,2.80
2019-01-28T06:27:41.696Z,2.80
2019-01-28T06:30:13.473Z,2.80
2019-01-28T06:32:41.822Z,2.80
2019-01-28T06:35:10.182Z,2.80
2019-01-28T06:37:38.575Z,2.80
2019-01-28T06:40:16.174Z,2.80
2019-01-28T06:42:44.608Z,2.80
2019-01-28T06:45:13.969Z,2.80
2019-01-28T06:47:46.970Z,2.80
2019-01-28T06:50:15.488Z,2.90
2019-01-28T06:52:43.909Z,2.90
2019-01-28T06:55:12.323Z,2.80
2019-01-28T06:57:40.681Z,2.80
2019-01-28T07:00:21.593Z,2.80
2019-01-28T07:02:49.950Z,2.90
2019-01-28T07:05:18.225Z,2.90
2019-01-28T07:07:49.447Z,2.90
2019-01-28T07:10:17.808Z,2.90
2019-01-28T07:12:46.168Z,3.00
2019-01-28T07:15:16.906Z,2.90
2019-01-28T07:17:45.540Z,2.90
2019-01-28T07:20:16.741Z,2.90
2019-01-28T07:22:45.192Z,2.90
2019-01-28T07:25:13.553Z,2.80
2019-01-28T07:27:41.948Z,2.80
2019-01-28T07:30:28.452Z,2.80
2019-01-28T07:33:00.477Z,2.80
2019-01-28T07:35:33.479Z,2.80
2019-01-28T07:38:01.885Z,2.80
2019-01-28T07:40:30.844Z,2.90
2019-01-28T07:42:59.468Z,2.90
2019-01-28T07:45:35.822Z,2.90
2019-01-28T07:48:08.899Z,2.90
2019-01-28T07:50:38.263Z,2.90
2019-01-28T07:53:07.115Z,2.90
2019-01-28T07:55:36.132Z,2.90
2019-01-28T07:58:05.242Z,3.20
2019-01-28T08:00:33.695Z,3.10
2019-01-28T08:03:02.134Z,3.00
2019-01-28T08:05:30.610Z,2.90
2019-01-28T08:07:58.941Z,2.90
2019-01-28T08:10:27.389Z,2.90
2019-01-28T08:12:55.749Z,2.90
2019-01-28T08:15:26.275Z,2.90
2019-01-28T08:17:54.808Z,2.90
2019-01-28T08:20:23.160Z,2.90
2019-01-28T08:22:51.554Z,2.90
2019-01-28T08:25:21.173Z,2.90
2019-01-28T08:27:49.544Z,2.90
2019-01-28T08:30:29.108Z,3.00
2019-01-28T08:33:02.923Z,3.00
2019-01-28T08:35:34.060Z,3.00
2019-01-28T08:38:02.376Z,3.00
2019-01-28T08:40:30.750Z,3.00
2019-01-28T08:42:59.150Z,3.00
2019-01-28T08:45:27.525Z,3.00
2019-01-28T08:47:56.037Z,3.00
2019-01-28T08:50:26.579Z,2.90
2019-01-28T08:52:55.030Z,3.00
2019-01-28T08:55:25.489Z,2.90
2019-01-28T08:57:54.227Z,3.00
2019-01-28T09:00:56.846Z,3.00
2019-01-28T09:03:25.238Z,3.00
2019-01-28T09:05:53.786Z,3.00
2019-01-28T09:08:22.201Z,3.10
2019-01-28T09:10:50.697Z,3.20
2019-01-28T09:13:19.556Z,3.20
2019-01-28T09:15:47.924Z,3.20
2019-01-28T09:20:53.185Z,3.30
2019-01-28T09:23:23.474Z,3.30
2019-01-28T09:25:51.918Z,3.30
2019-01-28T09:28:20.766Z,3.30
2019-01-28T09:30:50.560Z,3.40
2019-01-28T09:33:19.109Z,3.40
2019-01-28T09:35:49.052Z,3.40
2019-01-28T09:38:17.522Z,3.50
2019-01-28T09:40:48.649Z,3.50
2019-01-28T09:43:17.005Z,3.70
2019-01-28T09:45:45.500Z,3.70
2019-01-28T09:48:14.526Z,3.70
2019-01-28T09:50:43.001Z,3.60
2019-01-28T09:53:11.466Z,3.60
2019-01-28T09:55:39.826Z,3.60
2019-01-28T09:58:08.240Z,3.40
2019-01-28T10:00:39.813Z,3.30
2019-01-28T10:03:08.523Z,3.30
2019-01-28T10:05:36.948Z,3.20
2019-01-28T10:08:05.670Z,3.20
2019-01-28T10:10:34.027Z,3.30
2019-01-28T10:13:02.320Z,3.30
2019-01-28T10:15:30.706Z,3.30
2019-01-28T10:17:59.147Z,3.40
2019-01-28T10:20:44.649Z,3.40
2019-01-28T10:23:12.394Z,3.40
2019-01-28T10:25:40.858Z,3.50
2019-01-28T10:28:09.250Z,3.70
2019-01-28T10:30:40.252Z,3.70
2019-01-28T10:33:10.848Z,3.60
2019-01-28T10:35:45.673Z,3.80
2019-01-28T10:38:14.211Z,4.30
2019-01-28T10:40:43.074Z,4.60
2019-01-28T10:43:13.474Z,5.40
2019-01-28T10:45:41.885Z,5.60
2019-01-28T10:48:10.737Z,5.60
2019-01-28T10:50:40.089Z,5.20
2019-01-28T10:53:08.654Z,4.70
2019-01-28T10:55:37.128Z,4.40
2019-01-28T10:58:05.708Z,4.10
2019-01-28T11:00:43.051Z,4.00
2019-01-28T11:03:13.661Z,4.40
2019-01-28T11:05:43.777Z,4.80
2019-01-28T11:08:12.166Z,4.60
2019-01-28T11:10:41.915Z,4.60
2019-01-28T11:13:10.406Z,4.40
2019-01-28T11:15:39.004Z,4.70
2019-01-28T11:18:16.595Z,4.70
2019-01-28T11:20:45.205Z,5.00
2019-01-28T11:23:13.670Z,5.30
2019-01-28T11:25:42.167Z,5.10
2019-01-28T11:28:10.627Z,5.00
2019-01-28T11:30:43.391Z,4.50
2019-01-28T11:33:11.883Z,4.60
2019-01-28T11:35:40.722Z,4.80
2019-01-28T11:38:09.143Z,4.80
2019-01-28T11:40:37.686Z,4.60
2019-01-28T11:43:06.145Z,4.30
2019-01-28T11:45:40.725Z,4.20
2019-01-28T11:48:09.191Z,4.10
2019-01-28T11:50:37.483Z,4.30
2019-01-28T11:53:06.262Z,4.30
2019-01-28T11:55:36.649Z,4.30
2019-01-28T11:58:05.808Z,4.40
2019-01-28T12:00:40.519Z,4.40
2019-01-28T12:03:09.247Z,4.50
2019-01-28T12:05:38.785Z,4.40
2019-01-28T12:08:07.224Z,4.50
2019-01-28T12:10:37.793Z,4.50
2019-01-28T12:13:06.207Z,4.30
2019-01-28T12:15:34.628Z,4.40
2019-01-28T12:18:05.971Z,4.40
2019-01-28T12:20:34.598Z,4.50
2019-01-28T12:23:03.225Z,4.40
2019-01-28T12:25:31.797Z,4.60
2019-01-28T12:28:00.336Z,4.50
2019-01-28T12:30:33.622Z,4.30
2019-01-28T12:33:02.467Z,4.30
2019-01-28T12:35:31.212Z,4.50
2019-01-28T12:38:00.210Z,4.60
2019-01-28T12:40:30.161Z,4.80
2019-01-28T12:43:01.250Z,4.70
2019-01-28T12:45:30.169Z,4.60
2019-01-28T12:47:58.758Z,4.80
2019-01-28T12:50:27.554Z,4.60
2019-01-28T12:52:56.295Z,4.70
2019-01-28T12:55:26.876Z,4.50
2019-01-28T12:57:57.902Z,4.50
2019-01-28T13:00:50.646Z,4.60
2019-01-28T13:03:19.646Z,4.70
2019-01-28T13:05:49.806Z,4.70
2019-01-28T13:08:21.767Z,4.60
2019-01-28T13:10:51.568Z,4.50
2019-01-28T13:13:25.236Z,4.60
2019-01-28T13:15:55.455Z,4.60
2019-01-28T13:18:25.450Z,4.50
2019-01-28T13:20:53.906Z,4.30
2019-01-28T13:23:22.301Z,4.40
2019-01-28T13:25:53.305Z,4.50
2019-01-28T13:28:23.645Z,4.40
2019-01-28T13:30:56.845Z,4.20
2019-01-28T13:33:27.797Z,4.20
2019-01-28T13:35:59.674Z,4.20
2019-01-28T13:38:28.321Z,4.10
2019-01-28T13:41:00.911Z,4.20
2019-01-28T13:43:39.777Z,4.30
2019-01-28T13:49:04.076Z,4.30
2019-01-28T13:51:34.058Z,4.20
2019-01-28T13:54:09.323Z,4.10
2019-01-28T13:56:39.410Z,4.00
2019-01-28T13:59:16.196Z,4.00
2019-01-28T14:01:43.273Z,4.10
2019-01-28T14:04:12.798Z,4.00
2019-01-28T14:06:41.509Z,4.00
2019-01-28T14:09:14.514Z,4.00
2019-01-28T14:11:45.772Z,4.10
2019-01-28T14:14:14.225Z,4.10
2019-01-28T14:16:42.924Z,4.00
2019-01-28T14:19:12.683Z,3.90
2019-01-28T14:21:42.409Z,3.90
2019-01-28T14:24:15.073Z,3.80
2019-01-28T14:26:43.434Z,3.80
2019-01-28T14:29:34.446Z,3.90
2019-01-28T14:32:03.211Z,4.00
2019-01-28T14:34:32.401Z,4.00
2019-01-28T14:37:01.909Z,4.00
2019-01-28T14:39:31.328Z,3.90
2019-01-28T14:42:01.223Z,3.90
2019-01-28T14:44:30.680Z,3.80
2019-01-28T14:47:07.857Z,3.80
2019-01-28T14:49:54.203Z,3.80
2019-01-28T14:52:17.933Z,3.70
2019-01-28T14:54:47.999Z,3.70
2019-01-28T14:57:18.130Z,3.70
2019-01-28T14:59:49.808Z,3.70
2019-01-28T15:02:21.068Z,3.60
2019-01-28T15:04:52.206Z,3.60
2019-01-28T15:07:28.066Z,3.50
2019-01-28T15:09:56.426Z,3.40
2019-01-28T15:12:28.511Z,3.30
2019-01-28T15:15:02.561Z,3.20
2019-01-28T15:17:33.813Z,3.30
2019-01-28T15:20:06.191Z,3.20
2019-01-28T15:22:35.903Z,3.00
2019-01-28T15:25:22.948Z,3.10
2019-01-28T15:27:51.338Z,3.00
2019-01-28T15:30:35.320Z,3.10
2019-01-28T15:33:06.483Z,3.10
2019-01-28T15:35:35.003Z,3.10
2019-01-28T15:38:06.066Z,3.10
2019-01-28T15:40:58.265Z,2.90
2019-01-28T15:43:30.015Z,2.90
2019-01-28T15:46:04.194Z,2.90
2019-01-28T15:48:40.028Z,2.90
2019-01-28T15:51:08.384Z,2.80
2019-01-28T15:56:28.458Z,2.80
2019-01-28T15:58:59.528Z,2.80
2019-01-28T16:01:29.065Z,2.80
2019-01-28T16:03:59.379Z,2.70
2019-01-28T16:06:47.194Z,2.70
2019-01-28T16:09:15.643Z,2.80
2019-01-28T16:11:44.494Z,2.80
2019-01-28T16:14:13.669Z,2.70
2019-01-28T16:16:42.081Z,2.70
2019-01-28T16:19:11.026Z,2.80
2019-01-28T16:21:40.017Z,2.80
2019-01-28T16:24:09.997Z,2.70
2019-01-28T16:26:41.626Z,2.70
2019-01-28T16:29:10.453Z,2.60
2019-01-28T16:31:40.579Z,2.60
2019-01-28T16:34:09.023Z,2.50
2019-01-28T16:36:55.090Z,2.50
2019-01-28T16:39:27.434Z,2.40
2019-01-28T16:41:58.228Z,2.40
2019-01-28T16:44:28.287Z,2.40
2019-01-28T16:47:04.963Z,2.20
2019-01-28T16:49:33.345Z,2.20
2019-01-28T16:52:02.129Z,2.10
2019-01-28T16:54:33.915Z,2.00
2019-01-28T16:57:02.421Z,1.90
2019-01-28T16:59:31.399Z,2.00
2019-01-28T17:02:00.877Z,1.90
2019-01-28T17:04:29.613Z,1.90
2019-01-28T17:07:00.323Z,1.80
2019-01-28T17:09:33.897Z,1.90
2019-01-28T17:12:02.645Z,1.90
2019-01-28T17:14:35.381Z,1.80
2019-01-28T17:17:03.738Z,1.80
2019-01-28T17:19:32.807Z,1.80
2019-01-28T17:22:06.342Z,1.80
2019-01-28T17:24:34.732Z,1.90
2019-01-28T17:27:04.752Z,1.80
2019-01-28T17:29:35.993Z,1.90
2019-01-28T17:32:04.510Z,1.90
2019-01-28T17:34:33.088Z,1.90
2019-01-28T17:37:02.236Z,1.90
2019-01-28T17:39:32.275Z,1.90
2019-01-28T17:42:01.715Z,1.80
2019-01-28T17:44:37.170Z,1.80
2019-01-28T17:47:05.646Z,1.80
2019-01-28T17:49:34.230Z,1.80
2019-01-28T17:52:02.744Z,1.80
2019-01-28T17:54:31.180Z,1.80
2019-01-28T17:56:59.704Z,1.70
2019-01-28T17:59:28.159Z,1.70
2019-01-28T18:01:56.614Z,1.70
2019-01-28T18:04:32.962Z,1.60
2019-01-28T18:07:11.136Z,1.50
2019-01-28T18:09:46.663Z,1.50
2019-01-28T18:12:21.613Z,1.60
2019-01-28T18:14:51.625Z,1.50
2019-01-28T18:17:21.453Z,1.60
2019-01-28T18:19:50.778Z,1.50
2019-01-28T18:22:24.959Z,1.60
2019-01-28T18:24:55.290Z,1.60
2019-01-28T18:30:34.653Z,1.50
2019-01-28T18:33:03.672Z,1.60
2019-01-28T18:35:32.351Z,1.60
2019-01-28T18:38:01.270Z,1.70
2019-01-28T18:40:30.069Z,1.70
2019-01-28T18:42:59.379Z,1.70
2019-01-28T18:45:27.717Z,1.70
2019-01-28T18:50:38.959Z,1.60
2019-01-28T18:53:07.444Z,1.60
2019-01-28T18:55:37.835Z,1.70
2019-01-28T18:58:14.474Z,1.70
2019-01-28T19:00:42.857Z,1.80
2019-01-28T19:03:11.371Z,1.80
2019-01-28T19:05:54.629Z,1.80
2019-01-28T19:08:25.322Z,1.80
2019-01-28T19:13:53.018Z,1.90
2019-01-28T19:16:26.248Z,1.90
2019-01-28T19:18:57.903Z,1.90
2019-01-28T19:21:30.482Z,1.90
2019-01-28T19:23:59.538Z,1.90
2019-01-28T19:26:28.267Z,1.80
2019-01-28T19:28:56.620Z,1.90
2019-01-28T19:31:26.725Z,1.90
2019-01-28T19:33:58.820Z,1.90
2019-01-28T19:36:27.227Z,1.90
2019-01-28T19:38:55.800Z,1.90
2019-01-28T19:41:24.216Z,1.90
2019-01-28T19:43:53.218Z,1.90
2019-01-28T19:46:23.077Z,2.00
2019-01-28T19:48:52.720Z,2.00
2019-01-28T19:51:26.190Z,2.00
2019-01-28T19:54:05.256Z,2.00
2019-01-28T19:56:33.882Z,2.00
2019-01-28T19:59:03.818Z,2.00
2019-01-28T20:01:34.051Z,2.00
2019-01-28T20:04:06.115Z,2.00
2019-01-28T20:06:35.571Z,2.00
2019-01-28T20:09:06.161Z,2.10
2019-01-28T20:11:35.028Z,2.10
2019-01-28T20:14:06.034Z,2.10
2019-01-28T20:16:34.974Z,2.20
2019-01-28T20:19:05.426Z,2.20
2019-01-28T20:21:33.966Z,2.20
2019-01-28T20:24:09.895Z,2.20
2019-01-28T20:26:43.602Z,2.20
2019-01-28T20:29:18.205Z,2.30
2019-01-28T20:31:47.962Z,2.20
2019-01-28T20:34:17.731Z,2.20
2019-01-28T20:36:46.181Z,2.30
2019-01-28T20:39:14.543Z,2.30
2019-01-28T20:41:42.966Z,2.30
2019-01-28T20:44:11.536Z,2.30
2019-01-28T20:46:40.002Z,2.30
2019-01-28T20:49:08.475Z,2.40
2019-01-28T20:51:36.859Z,2.40
2019-01-28T20:54:05.280Z,2.40
2019-01-28T20:56:33.814Z,2.40
2019-01-28T20:59:02.227Z,2.40
2019-01-28T21:01:31.141Z,2.40
2019-01-28T21:03:59.541Z,2.40
2019-01-28T21:06:28.075Z,2.40
2019-01-28T21:08:56.516Z,2.40
2019-01-28T21:11:24.888Z,2.50
2019-01-28T21:13:53.272Z,2.50
2019-01-28T21:16:21.832Z,2.50
2019-01-28T21:18:50.147Z,2.50
2019-01-28T21:21:18.530Z,2.50
2019-01-28T21:23:46.964Z,2.50
2019-01-28T21:26:15.275Z,2.50
2019-01-28T21:28:43.729Z,2.50
2019-01-28T21:31:12.120Z,2.50
2019-01-28T21:33:40.570Z,2.60
2019-01-28T21:36:19.675Z,2.60
2019-01-28T21:38:48.036Z,2.50
2019-01-28T21:41:16.442Z,2.60
2019-01-28T21:43:44.838Z,2.60
2019-01-28T21:46:13.454Z,2.60
2019-01-28T21:48:41.860Z,2.60
2019-01-28T21:51:10.180Z,2.60
2019-01-28T21:53:38.584Z,2.60
2019-01-28T21:56:08.705Z,2.60
2019-01-28T21:58:37.190Z,2.60
2019-01-28T22:01:05.700Z,2.60
2019-01-28T22:03:34.111Z,2.60
2019-01-28T22:06:02.415Z,2.60
2019-01-28T22:08:30.737Z,2.60
2019-01-28T22:10:59.074Z,2.60
2019-01-28T22:13:27.489Z,2.60
2019-01-28T22:15:55.850Z,2.60
2019-01-28T22:18:24.206Z,2.50
2019-01-28T22:20:52.599Z,2.40
2019-01-28T22:23:20.942Z,2.30
2019-01-28T22:25:49.367Z,2.10
2019-01-28T22:28:17.723Z,2.20
2019-01-28T22:30:46.131Z,2.10
2019-01-28T22:33:14.433Z,1.90
2019-01-28T22:35:42.820Z,1.90
2019-01-28T22:38:11.173Z,1.90
2019-01-28T22:40:39.473Z,1.80
2019-01-28T22:43:07.839Z,1.80
2019-01-28T22:45:36.269Z,1.70
2019-01-28T22:48:04.840Z,1.70
2019-01-28T22:50:33.343Z,1.80
2019-01-28T22:53:01.799Z,1.80
2019-01-28T22:55:30.129Z,1.70
2019-01-28T22:57:58.537Z,1.70
2019-01-28T23:00:49.542Z,1.70
2019-01-28T23:03:19.395Z,1.70
2019-01-28T23:05:47.759Z,1.70
2019-01-28T23:08:16.120Z,1.80
2019-01-28T23:10:44.478Z,1.80
2019-01-28T23:13:12.905Z,1.70
2019-01-28T23:15:41.249Z,1.60
2019-01-28T23:18:09.798Z,1.70
2019-01-28T23:20:38.161Z,1.70
2019-01-28T23:23:06.569Z,1.60
2019-01-28T23:25:34.846Z,1.60
2019-01-28T23:28:03.209Z,1.60
2019-01-28T23:30:31.614Z,1.60
2019-01-28T23:32:59.994Z,1.70
2019-01-28T23:35:28.447Z,1.60
2019-01-28T23:37:56.808Z,1.70
2019-01-28T23:40:25.191Z,1.70
2019-01-28T23:42:54.207Z,1.70
2019-01-28T23:45:22.561Z,1.60
2019-01-28T23:47:50.914Z,1.60
2019-01-28T23:50:19.418Z,1.60
2019-01-28T23:52:47.776Z,1.70
2019-01-28T23:55:16.274Z,1.70
2019-01-28T23:57:44.629Z,1.70
